sensor_id;sensor_type;location;lat;lon;timestamp;P1;durP1;ratioP1;P2;durP2;ratioP2
4921;SDS011;16625;53.624;10.106;2023-11-22T00:02:25;5.23;;;3.93;;
4921;SDS011;16625;53.624;10.106;2023-11-22T00:04:54;7.10;;;4.20;;
4921;SDS011;16625;53.624;10.106;2023-11-22T00:07:21;4.73;;;3.13;;
4921;SDS011;16625;53.624;10.106;2023-11-22T00:09:48;4.47;;;3.90;;
4921;SDS011;16625;53.624;10.106;2023-11-22T00:12:14;8.27;;;3.90;;
4921;SDS011;16625;53.624;10.106;2023-11-22T00:14:42;8.53;;;4.47;;
4921;SDS011;16625;53.624;10.106;2023-11-22T00:17:10;4.73;;;3.80;;
4921;SDS011;16625;53.624;10.106;2023-11-22T00:19:37;7.03;;;4.10;;
4921;SDS011;16625;53.624;10.106;2023-11-22T00:22:05;8.30;;;3.83;;
4921;SDS011;16625;53.624;10.106;2023-11-22T00:24:38;5.70;;;4.60;;
4921;SDS011;16625;53.624;10.106;2023-11-22T00:27:05;8.80;;;4.43;;
4921;SDS011;16625;53.624;10.106;2023-11-22T00:29:32;8.87;;;4.10;;
4921;SDS011;16625;53.624;10.106;2023-11-22T00:31:59;7.53;;;4.80;;
4921;SDS011;16625;53.624;10.106;2023-11-22T00:34:27;4.67;;;3.30;;
4921;SDS011;16625;53.624;10.106;2023-11-22T00:36:54;8.57;;;4.33;;
4921;SDS011;16625;53.624;10.106;2023-11-22T00:39:21;5.43;;;4.23;;
4921;SDS011;16625;53.624;10.106;2023-11-22T00:41:48;8.23;;;4.43;;
4921;SDS011;16625;53.624;10.106;2023-11-22T00:44:15;6.80;;;4.47;;
4921;SDS011;16625;53.624;10.106;2023-11-22T00:46:43;6.43;;;4.30;;
4921;SDS011;16625;53.624;10.106;2023-11-22T00:49:10;8.03;;;4.30;;
4921;SDS011;16625;53.624;10.106;2023-11-22T00:51:40;6.63;;;4.73;;
4921;SDS011;16625;53.624;10.106;2023-11-22T00:54:07;4.70;;;3.77;;
4921;SDS011;16625;53.624;10.106;2023-11-22T00:56:34;4.30;;;3.50;;
4921;SDS011;16625;53.624;10.106;2023-11-22T00:59:01;6.60;;;4.47;;
4921;SDS011;16625;53.624;10.106;2023-11-22T01:01:29;7.13;;;4.20;;
4921;SDS011;16625;53.624;10.106;2023-11-22T01:03:56;4.90;;;3.70;;
4921;SDS011;16625;53.624;10.106;2023-11-22T01:06:23;7.00;;;4.10;;
4921;SDS011;16625;53.624;10.106;2023-11-22T01:08:52;7.47;;;3.67;;
4921;SDS011;16625;53.624;10.106;2023-11-22T01:11:19;6.30;;;3.50;;
4921;SDS011;16625;53.624;10.106;2023-11-22T01:13:46;6.50;;;4.30;;
4921;SDS011;16625;53.624;10.106;2023-11-22T01:16:13;7.10;;;4.57;;
4921;SDS011;16625;53.624;10.106;2023-11-22T01:18:40;7.43;;;4.50;;
4921;SDS011;16625;53.624;10.106;2023-11-22T01:21:08;7.10;;;3.87;;
4921;SDS011;16625;53.624;10.106;2023-11-22T01:23:35;6.90;;;3.67;;
4921;SDS011;16625;53.624;10.106;2023-11-22T01:26:04;6.00;;;4.00;;
4921;SDS011;16625;53.624;10.106;2023-11-22T01:28:32;7.47;;;4.13;;
4921;SDS011;16625;53.624;10.106;2023-11-22T01:31:00;6.93;;;4.10;;
4921;SDS011;16625;53.624;10.106;2023-11-22T01:33:27;7.93;;;4.90;;
4921;SDS011;16625;53.624;10.106;2023-11-22T01:35:54;5.57;;;3.87;;
4921;SDS011;16625;53.624;10.106;2023-11-22T01:38:21;6.30;;;4.47;;
4921;SDS011;16625;53.624;10.106;2023-11-22T01:40:48;7.40;;;4.20;;
4921;SDS011;16625;53.624;10.106;2023-11-22T01:43:18;8.30;;;4.00;;
4921;SDS011;16625;53.624;10.106;2023-11-22T01:45:48;5.03;;;4.27;;
4921;SDS011;16625;53.624;10.106;2023-11-22T01:48:16;6.03;;;3.90;;
4921;SDS011;16625;53.624;10.106;2023-11-22T01:50:43;5.17;;;3.97;;
4921;SDS011;16625;53.624;10.106;2023-11-22T01:53:10;6.37;;;3.97;;
4921;SDS011;16625;53.624;10.106;2023-11-22T01:55:38;6.97;;;4.27;;
4921;SDS011;16625;53.624;10.106;2023-11-22T01:58:07;6.50;;;4.37;;
4921;SDS011;16625;53.624;10.106;2023-11-22T02:00:40;9.60;;;4.20;;
4921;SDS011;16625;53.624;10.106;2023-11-22T02:03:10;7.30;;;5.30;;
4921;SDS011;16625;53.624;10.106;2023-11-22T02:05:39;7.67;;;4.20;;
4921;SDS011;16625;53.624;10.106;2023-11-22T02:08:08;5.13;;;3.80;;
4921;SDS011;16625;53.624;10.106;2023-11-22T02:10:35;7.23;;;3.60;;
4921;SDS011;16625;53.624;10.106;2023-11-22T02:13:02;5.17;;;4.00;;
4921;SDS011;16625;53.624;10.106;2023-11-22T02:15:32;5.03;;;3.57;;
4921;SDS011;16625;53.624;10.106;2023-11-22T02:18:01;5.53;;;3.40;;
4921;SDS011;16625;53.624;10.106;2023-11-22T02:20:29;7.93;;;3.80;;
4921;SDS011;16625;53.624;10.106;2023-11-22T02:22:56;6.63;;;4.20;;
4921;SDS011;16625;53.624;10.106;2023-11-22T02:25:24;8.67;;;5.20;;
4921;SDS011;16625;53.624;10.106;2023-11-22T02:27:51;7.93;;;3.87;;
4921;SDS011;16625;53.624;10.106;2023-11-22T02:30:17;6.53;;;4.20;;
4921;SDS011;16625;53.624;10.106;2023-11-22T02:32:44;8.80;;;5.17;;
4921;SDS011;16625;53.624;10.106;2023-11-22T02:35:11;6.57;;;4.43;;
4921;SDS011;16625;53.624;10.106;2023-11-22T02:37:41;7.07;;;4.57;;
4921;SDS011;16625;53.624;10.106;2023-11-22T02:40:17;9.07;;;4.77;;
4921;SDS011;16625;53.624;10.106;2023-11-22T02:42:46;7.67;;;4.07;;
4921;SDS011;16625;53.624;10.106;2023-11-22T02:45:14;7.83;;;4.37;;
4921;SDS011;16625;53.624;10.106;2023-11-22T02:47:42;8.53;;;4.63;;
4921;SDS011;16625;53.624;10.106;2023-11-22T02:50:11;9.03;;;5.60;;
4921;SDS011;16625;53.624;10.106;2023-11-22T02:52:38;8.63;;;4.83;;
4921;SDS011;16625;53.624;10.106;2023-11-22T02:55:05;7.70;;;5.20;;
4921;SDS011;16625;53.624;10.106;2023-11-22T02:57:34;5.87;;;4.20;;
4921;SDS011;16625;53.624;10.106;2023-11-22T03:00:03;7.83;;;4.77;;
4921;SDS011;16625;53.624;10.106;2023-11-22T03:02:32;6.87;;;4.20;;
4921;SDS011;16625;53.624;10.106;2023-11-22T03:04:59;7.70;;;5.40;;
4921;SDS011;16625;53.624;10.106;2023-11-22T03:07:26;8.03;;;4.20;;
4921;SDS011;16625;53.624;10.106;2023-11-22T03:09:53;6.10;;;4.43;;
4921;SDS011;16625;53.624;10.106;2023-11-22T03:12:20;5.20;;;4.00;;
4921;SDS011;16625;53.624;10.106;2023-11-22T03:14:48;7.60;;;4.67;;
4921;SDS011;16625;53.624;10.106;2023-11-22T03:17:16;6.13;;;4.03;;
4921;SDS011;16625;53.624;10.106;2023-11-22T03:19:43;8.60;;;5.50;;
4921;SDS011;16625;53.624;10.106;2023-11-22T03:22:11;9.83;;;4.50;;
4921;SDS011;16625;53.624;10.106;2023-11-22T03:24:38;6.90;;;5.17;;
4921;SDS011;16625;53.624;10.106;2023-11-22T03:27:05;7.73;;;4.90;;
4921;SDS011;16625;53.624;10.106;2023-11-22T03:29:32;11.40;;;5.43;;
4921;SDS011;16625;53.624;10.106;2023-11-22T03:31:59;7.30;;;5.30;;
4921;SDS011;16625;53.624;10.106;2023-11-22T03:34:28;7.77;;;4.80;;
4921;SDS011;16625;53.624;10.106;2023-11-22T03:36:55;8.40;;;5.10;;
4921;SDS011;16625;53.624;10.106;2023-11-22T03:39:22;5.50;;;4.37;;
4921;SDS011;16625;53.624;10.106;2023-11-22T03:41:49;6.83;;;5.97;;
4921;SDS011;16625;53.624;10.106;2023-11-22T03:44:16;6.27;;;5.10;;
4921;SDS011;16625;53.624;10.106;2023-11-22T03:46:43;9.97;;;4.53;;
4921;SDS011;16625;53.624;10.106;2023-11-22T03:49:10;6.30;;;4.83;;
4921;SDS011;16625;53.624;10.106;2023-11-22T03:51:39;5.20;;;4.33;;
4921;SDS011;16625;53.624;10.106;2023-11-22T03:54:08;8.03;;;5.53;;
4921;SDS011;16625;53.624;10.106;2023-11-22T03:56:36;10.80;;;6.90;;
4921;SDS011;16625;53.624;10.106;2023-11-22T03:59:03;32.20;;;18.90;;
4921;SDS011;16625;53.624;10.106;2023-11-22T04:01:29;22.53;;;12.13;;
4921;SDS011;16625;53.624;10.106;2023-11-22T04:03:56;9.93;;;6.57;;
4921;SDS011;16625;53.624;10.106;2023-11-22T04:06:23;12.20;;;8.60;;
4921;SDS011;16625;53.624;10.106;2023-11-22T04:08:54;8.97;;;6.20;;
4921;SDS011;16625;53.624;10.106;2023-11-22T04:11:21;9.97;;;5.77;;
4921;SDS011;16625;53.624;10.106;2023-11-22T04:13:48;8.83;;;6.20;;
4921;SDS011;16625;53.624;10.106;2023-11-22T04:16:15;14.83;;;8.03;;
4921;SDS011;16625;53.624;10.106;2023-11-22T04:18:42;8.50;;;5.70;;
4921;SDS011;16625;53.624;10.106;2023-11-22T04:21:09;7.50;;;4.60;;
4921;SDS011;16625;53.624;10.106;2023-11-22T04:23:36;8.83;;;6.50;;
4921;SDS011;16625;53.624;10.106;2023-11-22T04:26:05;10.70;;;6.43;;
4921;SDS011;16625;53.624;10.106;2023-11-22T04:28:32;10.33;;;5.50;;
4921;SDS011;16625;53.624;10.106;2023-11-22T04:31:00;8.60;;;5.63;;
4921;SDS011;16625;53.624;10.106;2023-11-22T04:33:29;17.37;;;5.10;;
4921;SDS011;16625;53.624;10.106;2023-11-22T04:35:56;8.63;;;5.70;;
4921;SDS011;16625;53.624;10.106;2023-11-22T04:38:23;11.93;;;6.80;;
4921;SDS011;16625;53.624;10.106;2023-11-22T04:40:50;8.47;;;4.90;;
4921;SDS011;16625;53.624;10.106;2023-11-22T04:43:18;8.30;;;5.80;;
4921;SDS011;16625;53.624;10.106;2023-11-22T04:45:46;7.53;;;5.23;;
4921;SDS011;16625;53.624;10.106;2023-11-22T04:48:13;9.63;;;6.20;;
4921;SDS011;16625;53.624;10.106;2023-11-22T04:50:40;8.37;;;5.37;;
4921;SDS011;16625;53.624;10.106;2023-11-22T04:53:07;8.43;;;5.80;;
4921;SDS011;16625;53.624;10.106;2023-11-22T04:55:35;6.73;;;5.47;;
4921;SDS011;16625;53.624;10.106;2023-11-22T04:58:02;11.40;;;5.43;;
4921;SDS011;16625;53.624;10.106;2023-11-22T05:00:30;7.40;;;5.27;;
4921;SDS011;16625;53.624;10.106;2023-11-22T05:02:57;8.97;;;5.37;;
4921;SDS011;16625;53.624;10.106;2023-11-22T05:05:24;7.63;;;4.93;;
4921;SDS011;16625;53.624;10.106;2023-11-22T05:07:51;7.70;;;5.07;;
4921;SDS011;16625;53.624;10.106;2023-11-22T05:10:18;9.43;;;5.70;;
4921;SDS011;16625;53.624;10.106;2023-11-22T05:12:45;8.53;;;5.30;;
4921;SDS011;16625;53.624;10.106;2023-11-22T05:15:12;7.10;;;4.67;;
4921;SDS011;16625;53.624;10.106;2023-11-22T05:17:41;8.20;;;5.00;;
4921;SDS011;16625;53.624;10.106;2023-11-22T05:20:08;6.30;;;5.30;;
4921;SDS011;16625;53.624;10.106;2023-11-22T05:22:35;8.93;;;5.83;;
4921;SDS011;16625;53.624;10.106;2023-11-22T05:25:02;5.33;;;4.73;;
4921;SDS011;16625;53.624;10.106;2023-11-22T05:27:30;10.30;;;6.20;;
4921;SDS011;16625;53.624;10.106;2023-11-22T05:29:57;8.03;;;5.33;;
4921;SDS011;16625;53.624;10.106;2023-11-22T05:32:25;6.60;;;5.03;;
4921;SDS011;16625;53.624;10.106;2023-11-22T05:34:54;7.10;;;5.30;;
4921;SDS011;16625;53.624;10.106;2023-11-22T05:37:21;9.40;;;5.63;;
4921;SDS011;16625;53.624;10.106;2023-11-22T05:39:48;9.13;;;4.90;;
4921;SDS011;16625;53.624;10.106;2023-11-22T05:42:15;5.90;;;4.00;;
4921;SDS011;16625;53.624;10.106;2023-11-22T05:44:43;9.60;;;5.73;;
4921;SDS011;16625;53.624;10.106;2023-11-22T05:47:10;6.47;;;5.60;;
4921;SDS011;16625;53.624;10.106;2023-11-22T05:49:38;6.70;;;4.83;;
4921;SDS011;16625;53.624;10.106;2023-11-22T05:52:06;6.13;;;4.40;;
4921;SDS011;16625;53.624;10.106;2023-11-22T05:54:33;8.40;;;5.97;;
4921;SDS011;16625;53.624;10.106;2023-11-22T05:57:00;10.67;;;5.87;;
4921;SDS011;16625;53.624;10.106;2023-11-22T05:59:27;8.13;;;5.20;;
4921;SDS011;16625;53.624;10.106;2023-11-22T06:01:54;10.37;;;6.67;;
4921;SDS011;16625;53.624;10.106;2023-11-22T06:04:21;8.77;;;6.40;;
4921;SDS011;16625;53.624;10.106;2023-11-22T06:06:48;9.37;;;5.73;;
4921;SDS011;16625;53.624;10.106;2023-11-22T06:09:17;9.00;;;5.40;;
4921;SDS011;16625;53.624;10.106;2023-11-22T06:11:44;9.80;;;5.57;;
4921;SDS011;16625;53.624;10.106;2023-11-22T06:14:11;11.10;;;5.60;;
4921;SDS011;16625;53.624;10.106;2023-11-22T06:16:38;10.07;;;6.20;;
4921;SDS011;16625;53.624;10.106;2023-11-22T06:19:05;7.23;;;5.00;;
4921;SDS011;16625;53.624;10.106;2023-11-22T06:21:32;7.50;;;5.80;;
4921;SDS011;16625;53.624;10.106;2023-11-22T06:24:00;9.00;;;5.70;;
4921;SDS011;16625;53.624;10.106;2023-11-22T06:26:30;10.90;;;5.57;;
4921;SDS011;16625;53.624;10.106;2023-11-22T06:28:57;11.67;;;6.10;;
4921;SDS011;16625;53.624;10.106;2023-11-22T06:31:24;10.73;;;6.60;;
4921;SDS011;16625;53.624;10.106;2023-11-22T06:33:51;9.53;;;5.20;;
4921;SDS011;16625;53.624;10.106;2023-11-22T06:36:18;10.07;;;6.27;;
4921;SDS011;16625;53.624;10.106;2023-11-22T06:38:45;10.77;;;7.73;;
4921;SDS011;16625;53.624;10.106;2023-11-22T06:41:12;15.07;;;9.57;;
4921;SDS011;16625;53.624;10.106;2023-11-22T06:43:40;13.20;;;6.63;;
4921;SDS011;16625;53.624;10.106;2023-11-22T06:46:07;10.50;;;7.27;;
4921;SDS011;16625;53.624;10.106;2023-11-22T06:48:34;10.60;;;6.43;;
4921;SDS011;16625;53.624;10.106;2023-11-22T06:51:01;12.23;;;7.97;;
4921;SDS011;16625;53.624;10.106;2023-11-22T06:53:28;12.53;;;7.60;;
4921;SDS011;16625;53.624;10.106;2023-11-22T06:55:55;10.20;;;7.30;;
4921;SDS011;16625;53.624;10.106;2023-11-22T06:58:22;11.23;;;6.03;;
4921;SDS011;16625;53.624;10.106;2023-11-22T07:00:51;13.30;;;6.80;;
4921;SDS011;16625;53.624;10.106;2023-11-22T07:03:18;7.90;;;6.27;;
4921;SDS011;16625;53.624;10.106;2023-11-22T07:05:46;11.57;;;6.67;;
4921;SDS011;16625;53.624;10.106;2023-11-22T07:08:13;11.10;;;6.30;;
4921;SDS011;16625;53.624;10.106;2023-11-22T07:10:41;11.13;;;5.70;;
4921;SDS011;16625;53.624;10.106;2023-11-22T07:13:10;8.93;;;6.30;;
4921;SDS011;16625;53.624;10.106;2023-11-22T07:15:37;11.90;;;6.00;;
4921;SDS011;16625;53.624;10.106;2023-11-22T07:18:07;9.47;;;5.33;;
4921;SDS011;16625;53.624;10.106;2023-11-22T07:20:35;23.33;;;6.83;;
4921;SDS011;16625;53.624;10.106;2023-11-22T07:23:02;8.93;;;5.63;;
4921;SDS011;16625;53.624;10.106;2023-11-22T07:25:29;10.53;;;7.17;;
4921;SDS011;16625;53.624;10.106;2023-11-22T07:27:56;13.23;;;6.70;;
4921;SDS011;16625;53.624;10.106;2023-11-22T07:30:25;12.43;;;7.10;;
4921;SDS011;16625;53.624;10.106;2023-11-22T07:32:55;9.10;;;6.20;;
4921;SDS011;16625;53.624;10.106;2023-11-22T07:35:25;10.23;;;7.37;;
4921;SDS011;16625;53.624;10.106;2023-11-22T07:37:53;21.73;;;8.23;;
4921;SDS011;16625;53.624;10.106;2023-11-22T07:40:20;10.37;;;7.10;;
4921;SDS011;16625;53.624;10.106;2023-11-22T07:42:48;14.80;;;7.97;;
4921;SDS011;16625;53.624;10.106;2023-11-22T07:45:15;14.27;;;7.30;;
4921;SDS011;16625;53.624;10.106;2023-11-22T07:47:42;16.30;;;8.03;;
4921;SDS011;16625;53.624;10.106;2023-11-22T07:50:09;13.83;;;8.10;;
4921;SDS011;16625;53.624;10.106;2023-11-22T07:52:38;13.20;;;7.50;;
4921;SDS011;16625;53.624;10.106;2023-11-22T07:55:06;11.07;;;7.70;;
4921;SDS011;16625;53.624;10.106;2023-11-22T07:57:35;13.23;;;9.30;;
4921;SDS011;16625;53.624;10.106;2023-11-22T08:00:02;29.60;;;8.30;;
4921;SDS011;16625;53.624;10.106;2023-11-22T08:02:32;15.63;;;7.80;;
4921;SDS011;16625;53.624;10.106;2023-11-22T08:04:59;13.30;;;8.60;;
4921;SDS011;16625;53.624;10.106;2023-11-22T08:07:31;15.03;;;8.13;;
4921;SDS011;16625;53.624;10.106;2023-11-22T08:09:59;16.87;;;7.93;;
4921;SDS011;16625;53.624;10.106;2023-11-22T08:12:35;18.90;;;8.10;;
4921;SDS011;16625;53.624;10.106;2023-11-22T08:15:02;9.17;;;7.43;;
4921;SDS011;16625;53.624;10.106;2023-11-22T08:17:30;14.37;;;7.13;;
4921;SDS011;16625;53.624;10.106;2023-11-22T08:19:58;15.57;;;7.33;;
4921;SDS011;16625;53.624;10.106;2023-11-22T08:22:25;11.57;;;7.37;;
4921;SDS011;16625;53.624;10.106;2023-11-22T08:24:54;14.13;;;7.30;;
4921;SDS011;16625;53.624;10.106;2023-11-22T08:27:24;16.40;;;8.83;;
4921;SDS011;16625;53.624;10.106;2023-11-22T08:29:51;12.20;;;7.90;;
4921;SDS011;16625;53.624;10.106;2023-11-22T08:32:18;16.93;;;9.40;;
4921;SDS011;16625;53.624;10.106;2023-11-22T08:34:48;15.17;;;9.20;;
4921;SDS011;16625;53.624;10.106;2023-11-22T08:37:15;16.60;;;9.57;;
4921;SDS011;16625;53.624;10.106;2023-11-22T08:39:42;32.37;;;10.77;;
4921;SDS011;16625;53.624;10.106;2023-11-22T08:42:09;17.03;;;9.63;;
4921;SDS011;16625;53.624;10.106;2023-11-22T08:44:38;13.10;;;9.03;;
4921;SDS011;16625;53.624;10.106;2023-11-22T08:47:05;13.77;;;8.73;;
4921;SDS011;16625;53.624;10.106;2023-11-22T08:49:33;13.80;;;8.23;;
4921;SDS011;16625;53.624;10.106;2023-11-22T08:52:00;24.00;;;8.90;;
4921;SDS011;16625;53.624;10.106;2023-11-22T08:54:28;13.77;;;8.67;;
4921;SDS011;16625;53.624;10.106;2023-11-22T08:56:57;16.10;;;7.40;;
4921;SDS011;16625;53.624;10.106;2023-11-22T08:59:25;13.00;;;7.80;;
4921;SDS011;16625;53.624;10.106;2023-11-22T09:01:54;15.33;;;9.03;;
4921;SDS011;16625;53.624;10.106;2023-11-22T09:04:21;14.67;;;9.37;;
4921;SDS011;16625;53.624;10.106;2023-11-22T09:06:51;19.60;;;8.60;;
4921;SDS011;16625;53.624;10.106;2023-11-22T09:09:21;20.73;;;9.40;;
4921;SDS011;16625;53.624;10.106;2023-11-22T09:11:55;21.53;;;9.50;;
4921;SDS011;16625;53.624;10.106;2023-11-22T09:14:22;14.37;;;8.20;;
4921;SDS011;16625;53.624;10.106;2023-11-22T09:16:49;13.20;;;9.47;;
4921;SDS011;16625;53.624;10.106;2023-11-22T09:19:20;15.13;;;8.17;;
4921;SDS011;16625;53.624;10.106;2023-11-22T09:21:48;17.47;;;8.87;;
4921;SDS011;16625;53.624;10.106;2023-11-22T09:24:15;24.53;;;8.00;;
4921;SDS011;16625;53.624;10.106;2023-11-22T09:26:43;28.77;;;11.00;;
4921;SDS011;16625;53.624;10.106;2023-11-22T09:29:10;50.20;;;10.30;;
4921;SDS011;16625;53.624;10.106;2023-11-22T09:31:39;22.10;;;10.50;;
4921;SDS011;16625;53.624;10.106;2023-11-22T09:34:07;25.10;;;9.07;;
4921;SDS011;16625;53.624;10.106;2023-11-22T09:36:36;14.60;;;8.97;;
4921;SDS011;16625;53.624;10.106;2023-11-22T09:39:03;18.00;;;8.00;;
4921;SDS011;16625;53.624;10.106;2023-11-22T09:41:33;24.10;;;8.70;;
4921;SDS011;16625;53.624;10.106;2023-11-22T09:44:00;20.60;;;7.93;;
4921;SDS011;16625;53.624;10.106;2023-11-22T09:46:29;20.93;;;8.70;;
4921;SDS011;16625;53.624;10.106;2023-11-22T09:48:59;17.03;;;7.77;;
4921;SDS011;16625;53.624;10.106;2023-11-22T09:51:28;17.43;;;7.87;;
4921;SDS011;16625;53.624;10.106;2023-11-22T09:53:59;11.70;;;7.50;;
4921;SDS011;16625;53.624;10.106;2023-11-22T09:56:29;19.80;;;9.57;;
4921;SDS011;16625;53.624;10.106;2023-11-22T09:58:58;15.97;;;8.43;;
4921;SDS011;16625;53.624;10.106;2023-11-22T10:01:26;16.77;;;9.23;;
4921;SDS011;16625;53.624;10.106;2023-11-22T10:03:55;12.00;;;7.23;;
4921;SDS011;16625;53.624;10.106;2023-11-22T10:06:23;12.50;;;7.03;;
4921;SDS011;16625;53.624;10.106;2023-11-22T10:08:51;12.53;;;8.60;;
4921;SDS011;16625;53.624;10.106;2023-11-22T10:11:20;15.57;;;8.30;;
4921;SDS011;16625;53.624;10.106;2023-11-22T10:13:47;12.63;;;7.30;;
4921;SDS011;16625;53.624;10.106;2023-11-22T10:16:16;12.83;;;7.80;;
4921;SDS011;16625;53.624;10.106;2023-11-22T10:18:44;13.50;;;7.23;;
4921;SDS011;16625;53.624;10.106;2023-11-22T10:21:21;8.87;;;7.00;;
4921;SDS011;16625;53.624;10.106;2023-11-22T10:23:49;18.43;;;9.00;;
4921;SDS011;16625;53.624;10.106;2023-11-22T10:26:19;14.23;;;8.40;;
4921;SDS011;16625;53.624;10.106;2023-11-22T10:28:49;12.77;;;7.93;;
4921;SDS011;16625;53.624;10.106;2023-11-22T10:31:16;14.07;;;7.07;;
4921;SDS011;16625;53.624;10.106;2023-11-22T10:33:43;11.63;;;8.53;;
4921;SDS011;16625;53.624;10.106;2023-11-22T10:36:10;11.33;;;7.00;;
4921;SDS011;16625;53.624;10.106;2023-11-22T10:38:38;14.70;;;7.13;;
4921;SDS011;16625;53.624;10.106;2023-11-22T10:41:05;12.07;;;8.37;;
4921;SDS011;16625;53.624;10.106;2023-11-22T10:43:34;11.67;;;7.77;;
4921;SDS011;16625;53.624;10.106;2023-11-22T10:46:02;12.07;;;6.83;;
4921;SDS011;16625;53.624;10.106;2023-11-22T10:48:31;19.10;;;7.80;;
4921;SDS011;16625;53.624;10.106;2023-11-22T10:51:00;12.90;;;7.73;;
4921;SDS011;16625;53.624;10.106;2023-11-22T10:53:30;11.87;;;6.90;;
4921;SDS011;16625;53.624;10.106;2023-11-22T10:56:02;18.30;;;7.00;;
4921;SDS011;16625;53.624;10.106;2023-11-22T10:58:32;10.70;;;7.63;;
4921;SDS011;16625;53.624;10.106;2023-11-22T11:01:02;16.43;;;6.73;;
4921;SDS011;16625;53.624;10.106;2023-11-22T11:03:32;13.63;;;7.30;;
4921;SDS011;16625;53.624;10.106;2023-11-22T11:06:07;11.27;;;7.70;;
4921;SDS011;16625;53.624;10.106;2023-11-22T11:08:38;8.40;;;6.03;;
4921;SDS011;16625;53.624;10.106;2023-11-22T11:11:05;13.53;;;6.20;;
4921;SDS011;16625;53.624;10.106;2023-11-22T11:13:34;12.10;;;6.07;;
4921;SDS011;16625;53.624;10.106;2023-11-22T11:16:00;9.33;;;6.20;;
4921;SDS011;16625;53.624;10.106;2023-11-22T11:18:28;8.50;;;5.50;;
4921;SDS011;16625;53.624;10.106;2023-11-22T11:20:58;10.20;;;5.77;;
4921;SDS011;16625;53.624;10.106;2023-11-22T11:23:25;8.63;;;6.00;;
4921;SDS011;16625;53.624;10.106;2023-11-22T11:25:53;11.33;;;6.30;;
4921;SDS011;16625;53.624;10.106;2023-11-22T11:28:21;6.70;;;5.70;;
4921;SDS011;16625;53.624;10.106;2023-11-22T11:30:52;7.53;;;5.07;;
4921;SDS011;16625;53.624;10.106;2023-11-22T11:33:20;7.40;;;5.20;;
4921;SDS011;16625;53.624;10.106;2023-11-22T11:35:56;7.17;;;4.90;;
4921;SDS011;16625;53.624;10.106;2023-11-22T11:38:27;14.80;;;5.60;;
4921;SDS011;16625;53.624;10.106;2023-11-22T11:41:00;8.57;;;5.97;;
4921;SDS011;16625;53.624;10.106;2023-11-22T11:43:42;7.47;;;5.60;;
4921;SDS011;16625;53.624;10.106;2023-11-22T11:46:12;7.13;;;5.20;;
4921;SDS011;16625;53.624;10.106;2023-11-22T11:48:42;7.53;;;5.60;;
4921;SDS011;16625;53.624;10.106;2023-11-22T11:51:09;10.63;;;5.43;;
4921;SDS011;16625;53.624;10.106;2023-11-22T11:53:39;10.87;;;5.17;;
4921;SDS011;16625;53.624;10.106;2023-11-22T11:56:06;7.33;;;5.13;;
4921;SDS011;16625;53.624;10.106;2023-11-22T11:58:34;11.10;;;4.57;;
4921;SDS011;16625;53.624;10.106;2023-11-22T12:01:00;9.90;;;4.60;;
4921;SDS011;16625;53.624;10.106;2023-11-22T12:03:29;6.67;;;4.80;;
4921;SDS011;16625;53.624;10.106;2023-11-22T12:05:56;8.10;;;5.80;;
4921;SDS011;16625;53.624;10.106;2023-11-22T12:08:23;11.60;;;5.43;;
4921;SDS011;16625;53.624;10.106;2023-11-22T12:10:55;21.57;;;6.30;;
4921;SDS011;16625;53.624;10.106;2023-11-22T12:13:24;10.23;;;6.93;;
4921;SDS011;16625;53.624;10.106;2023-11-22T12:15:51;10.83;;;5.53;;
4921;SDS011;16625;53.624;10.106;2023-11-22T12:18:19;13.53;;;5.80;;
4921;SDS011;16625;53.624;10.106;2023-11-22T12:20:55;9.13;;;5.67;;
4921;SDS011;16625;53.624;10.106;2023-11-22T12:23:23;8.97;;;5.37;;
4921;SDS011;16625;53.624;10.106;2023-11-22T12:25:55;7.60;;;4.87;;
4921;SDS011;16625;53.624;10.106;2023-11-22T12:28:23;9.33;;;4.50;;
4921;SDS011;16625;53.624;10.106;2023-11-22T12:30:52;4.73;;;3.40;;
4921;SDS011;16625;53.624;10.106;2023-11-22T12:33:19;5.70;;;3.50;;
4921;SDS011;16625;53.624;10.106;2023-11-22T12:35:47;6.90;;;4.13;;
4921;SDS011;16625;53.624;10.106;2023-11-22T12:38:16;5.93;;;3.93;;
4921;SDS011;16625;53.624;10.106;2023-11-22T12:40:43;6.60;;;3.70;;
4921;SDS011;16625;53.624;10.106;2023-11-22T12:43:13;4.33;;;2.87;;
4921;SDS011;16625;53.624;10.106;2023-11-22T12:45:40;3.60;;;3.03;;
4921;SDS011;16625;53.624;10.106;2023-11-22T12:48:19;10.57;;;3.50;;
4921;SDS011;16625;53.624;10.106;2023-11-22T12:50:48;7.93;;;3.77;;
4921;SDS011;16625;53.624;10.106;2023-11-22T12:53:17;4.77;;;3.23;;
4921;SDS011;16625;53.624;10.106;2023-11-22T12:55:47;6.60;;;3.80;;
4921;SDS011;16625;53.624;10.106;2023-11-22T13:02:01;4.13;;;2.30;;
4921;SDS011;16625;53.624;10.106;2023-11-22T13:04:28;4.90;;;2.90;;
4921;SDS011;16625;53.624;10.106;2023-11-22T13:07:09;6.00;;;3.00;;
4921;SDS011;16625;53.624;10.106;2023-11-22T13:09:51;6.43;;;2.47;;
4921;SDS011;16625;53.624;10.106;2023-11-22T13:12:18;3.90;;;2.87;;
4921;SDS011;16625;53.624;10.106;2023-11-22T13:14:49;3.63;;;2.20;;
4921;SDS011;16625;53.624;10.106;2023-11-22T13:17:30;3.97;;;2.57;;
4921;SDS011;16625;53.624;10.106;2023-11-22T13:19:59;4.73;;;2.73;;
4921;SDS011;16625;53.624;10.106;2023-11-22T13:22:30;5.57;;;2.40;;
4921;SDS011;16625;53.624;10.106;2023-11-22T13:27:58;3.13;;;2.60;;
4921;SDS011;16625;53.624;10.106;2023-11-22T13:30:27;7.50;;;2.87;;
4921;SDS011;16625;53.624;10.106;2023-11-22T13:32:54;4.23;;;2.73;;
4921;SDS011;16625;53.624;10.106;2023-11-22T13:35:22;4.50;;;3.00;;
4921;SDS011;16625;53.624;10.106;2023-11-22T13:37:49;2.40;;;2.10;;
4921;SDS011;16625;53.624;10.106;2023-11-22T13:40:19;2.67;;;2.40;;
4921;SDS011;16625;53.624;10.106;2023-11-22T13:42:48;4.17;;;2.40;;
4921;SDS011;16625;53.624;10.106;2023-11-22T13:45:19;3.43;;;2.17;;
4921;SDS011;16625;53.624;10.106;2023-11-22T13:47:48;3.70;;;2.00;;
4921;SDS011;16625;53.624;10.106;2023-11-22T13:50:18;3.50;;;2.23;;
4921;SDS011;16625;53.624;10.106;2023-11-22T13:52:48;2.83;;;2.23;;
4921;SDS011;16625;53.624;10.106;2023-11-22T13:55:15;8.83;;;2.30;;
4921;SDS011;16625;53.624;10.106;2023-11-22T13:57:47;2.10;;;1.90;;
4921;SDS011;16625;53.624;10.106;2023-11-22T14:00:14;2.60;;;2.10;;
4921;SDS011;16625;53.624;10.106;2023-11-22T14:02:45;3.43;;;2.70;;
4921;SDS011;16625;53.624;10.106;2023-11-22T14:05:12;2.57;;;2.13;;
4921;SDS011;16625;53.624;10.106;2023-11-22T14:07:40;3.17;;;2.60;;
4921;SDS011;16625;53.624;10.106;2023-11-22T14:10:08;3.80;;;2.40;;
4921;SDS011;16625;53.624;10.106;2023-11-22T14:12:35;4.70;;;2.33;;
4921;SDS011;16625;53.624;10.106;2023-11-22T14:15:03;2.10;;;1.90;;
4921;SDS011;16625;53.624;10.106;2023-11-22T14:17:31;3.90;;;2.40;;
4921;SDS011;16625;53.624;10.106;2023-11-22T14:19:59;4.13;;;2.47;;
4921;SDS011;16625;53.624;10.106;2023-11-22T14:22:26;3.00;;;2.40;;
4921;SDS011;16625;53.624;10.106;2023-11-22T14:24:53;4.00;;;3.60;;
4921;SDS011;16625;53.624;10.106;2023-11-22T14:27:22;6.20;;;2.40;;
4921;SDS011;16625;53.624;10.106;2023-11-22T14:29:49;4.83;;;3.07;;
4921;SDS011;16625;53.624;10.106;2023-11-22T14:32:17;3.90;;;2.67;;
4921;SDS011;16625;53.624;10.106;2023-11-22T14:34:45;3.33;;;2.33;;
4921;SDS011;16625;53.624;10.106;2023-11-22T14:37:14;2.83;;;2.30;;
4921;SDS011;16625;53.624;10.106;2023-11-22T14:39:42;2.63;;;2.13;;
4921;SDS011;16625;53.624;10.106;2023-11-22T14:42:10;4.10;;;2.77;;
4921;SDS011;16625;53.624;10.106;2023-11-22T14:44:37;3.20;;;2.30;;
4921;SDS011;16625;53.624;10.106;2023-11-22T14:47:04;4.83;;;2.67;;
4921;SDS011;16625;53.624;10.106;2023-11-22T14:49:40;3.60;;;2.23;;
4921;SDS011;16625;53.624;10.106;2023-11-22T14:52:08;3.07;;;2.40;;
4921;SDS011;16625;53.624;10.106;2023-11-22T14:54:36;4.47;;;3.00;;
4921;SDS011;16625;53.624;10.106;2023-11-22T14:57:03;4.17;;;2.87;;